Time;durP1;ratioP1;P1;durP2;ratioP2;P2;SDS_P1;SDS_P2;PMS_P1;PMS_P2;Temp;Humidity;BMP_temperature;BMP_pressure;BME280_temperature;BME280_humidity;BME280_pressure;Samples;Min_cycle;Max_cycle;Signal;HPM_P1;HPM_P2
2022/07/17 00:01:03;;;;;;;;;0.00;0.00;;;;;22.92;51.99;99125.03;4917055;28;103089;-59
2022/07/17 00:03:30;;;;;;;;;0.00;0.00;;;;;22.92;51.88;99122.28;4908606;28;103049;-59
2022/07/17 00:05:57;;;;;;;;;1.00;0.00;;;;;22.94;52.04;99124.78;4916797;28;103832;-59
2022/07/17 00:08:24;;;;;;;;;0.00;0.00;;;;;22.92;51.92;99130.53;4909486;28;104082;-60
2022/07/17 00:10:52;;;;;;;;;0.00;0.00;;;;;22.91;52.06;99131.66;4917818;28;102390;-59
2022/07/17 00:13:19;;;;;;;;;0.00;0.00;;;;;22.90;52.01;99130.00;4912486;28;102212;-59
2022/07/17 00:15:46;;;;;;;;;0.00;0.00;;;;;22.90;52.09;99134.69;4914377;28;103039;-59
2022/07/17 00:18:13;;;;;;;;;0.00;0.00;;;;;22.87;52.04;99130.53;4917201;28;104068;-59
2022/07/17 00:20:41;;;;;;;;;0.00;0.00;;;;;22.89;52.02;99133.03;4913998;28;102440;-59
2022/07/17 00:23:08;;;;;;;;;1.00;0.00;;;;;22.87;52.04;99136.06;4917495;28;104405;-59
2022/07/17 00:25:35;;;;;;;;;0.00;0.00;;;;;22.86;52.13;99137.16;4919210;28;102848;-59
2022/07/17 00:28:03;;;;;;;;;1.00;1.00;;;;;22.87;52.06;99146.25;4911411;28;104195;-60
2022/07/17 00:30:30;;;;;;;;;0.00;0.00;;;;;22.87;52.01;99135.22;4917238;28;102118;-59
2022/07/17 00:32:57;;;;;;;;;0.00;0.00;;;;;22.85;52.14;99143.75;4915175;28;102145;-59
2022/07/17 00:35:24;;;;;;;;;0.00;0.00;;;;;22.84;52.18;99139.34;4912078;28;102771;-59
2022/07/17 00:37:52;;;;;;;;;0.00;0.00;;;;;22.83;52.18;99140.44;4917311;28;104223;-59
2022/07/17 00:40:21;;;;;;;;;0.00;0.00;;;;;22.85;52.07;99145.69;4904016;28;103725;-60
2022/07/17 00:42:48;;;;;;;;;0.00;0.00;;;;;22.86;51.91;99141.84;4913968;28;104912;-59
2022/07/17 00:45:15;;;;;;;;;0.00;0.00;;;;;22.85;51.94;99142.94;4914799;28;102615;-59
2022/07/17 00:47:58;;;;;;;;;0.00;0.00;;;;;22.84;52.07;99146.78;4914539;28;104153;-59
2022/07/17 00:50:28;;;;;;;;;0.00;0.00;;;;;22.82;52.05;99149.81;4911578;28;103294;-59
2022/07/17 00:52:55;;;;;;;;;0.00;0.00;;;;;22.81;52.17;99148.16;4912925;28;102128;-59
2022/07/17 00:55:22;;;;;;;;;0.00;0.00;;;;;22.82;52.16;99149.81;4916976;28;102305;-60
2022/07/17 00:58:10;;;;;;;;;0.00;0.00;;;;;22.80;52.14;99143.72;4906923;28;107508;-59
2022/07/17 01:00:37;;;;;;;;;0.00;0.00;;;;;22.80;52.35;99148.41;4914604;28;102364;-59
2022/07/17 01:03:05;;;;;;;;;0.00;0.00;;;;;22.78;52.20;99143.19;4914819;28;102448;-59
2022/07/17 01:05:32;;;;;;;;;0.00;0.00;;;;;22.79;52.00;99142.06;4911841;28;103303;-59
2022/07/17 01:07:59;;;;;;;;;0.00;0.00;;;;;22.79;52.15;99144.81;4901856;28;104407;-59
2022/07/17 01:10:27;;;;;;;;;0.00;0.00;;;;;22.79;52.21;99150.34;4901334;28;102427;-59
2022/07/17 01:12:54;;;;;;;;;1.00;0.00;;;;;22.79;52.02;99153.09;4917225;28;102255;-59
2022/07/17 01:15:23;;;;;;;;;0.00;0.00;;;;;22.78;52.02;99154.22;4914748;28;102328;-59
2022/07/17 01:17:51;;;;;;;;;0.00;0.00;;;;;22.77;52.01;99151.72;4907244;28;109421;-59
2022/07/17 01:20:19;;;;;;;;;0.00;0.00;;;;;22.75;52.23;99151.97;4906307;28;102375;-60
2022/07/17 01:22:47;;;;;;;;;0.00;0.00;;;;;22.76;52.23;99161.91;4905143;28;102298;-59
2022/07/17 01:25:16;;;;;;;;;0.00;0.00;;;;;22.76;52.18;99156.41;4916147;28;108512;-59
2022/07/17 01:27:43;;;;;;;;;0.00;0.00;;;;;22.76;52.16;99150.88;4908781;28;104167;-59
2022/07/17 01:30:11;;;;;;;;;0.33;0.00;;;;;22.75;52.32;99170.44;4911804;28;102533;-59
2022/07/17 01:32:39;;;;;;;;;0.00;0.00;;;;;22.74;52.45;99157.78;4915569;28;102164;-59
2022/07/17 01:35:08;;;;;;;;;0.00;0.00;;;;;22.75;52.15;99159.41;4914627;28;103159;-59
2022/07/17 01:37:35;;;;;;;;;0.00;0.00;;;;;22.73;52.23;99165.22;4913202;28;104387;-59
2022/07/17 01:40:03;;;;;;;;;0.00;0.00;;;;;22.73;52.11;99156.94;4913468;28;104025;-59
2022/07/17 01:42:31;;;;;;;;;0.00;0.00;;;;;22.72;52.36;99157.19;4912227;28;103351;-59
2022/07/17 01:44:58;;;;;;;;;0.00;0.00;;;;;22.73;52.15;99167.97;4911000;28;102748;-59
2022/07/17 01:47:25;;;;;;;;;1.00;0.00;;;;;22.72;52.30;99154.44;4914174;28;104078;-60
2022/07/17 01:49:55;;;;;;;;;0.00;0.00;;;;;22.71;52.16;99164.63;4916960;28;102091;-59
2022/07/17 01:52:23;;;;;;;;;0.00;0.00;;;;;22.71;52.12;99159.13;4909724;28;103949;-59
2022/07/17 01:54:51;;;;;;;;;0.00;0.00;;;;;22.71;52.11;99156.34;4917818;28;102423;-59
2022/07/17 01:57:18;;;;;;;;;0.00;0.00;;;;;22.70;52.10;99157.44;4915107;28;104378;-59
2022/07/17 01:59:45;;;;;;;;;0.00;0.00;;;;;22.70;52.29;99157.44;4917548;28;104294;-59
2022/07/17 02:02:12;;;;;;;;;0.00;0.00;;;;;22.69;52.29;99164.06;4917347;28;102216;-59
2022/07/17 02:04:43;;;;;;;;;0.00;0.00;;;;;22.68;52.15;99160.47;4917551;28;103682;-60
2022/07/17 02:07:10;;;;;;;;;0.00;0.00;;;;;22.67;52.17;99161.53;4915474;28;104079;-59
2022/07/17 02:09:37;;;;;;;;;0.00;0.00;;;;;22.66;52.17;99151.59;4911924;28;103951;-59
2022/07/17 02:12:05;;;;;;;;;0.00;0.00;;;;;22.66;52.25;99156.28;4912383;28;102248;-59
2022/07/17 02:14:32;;;;;;;;;0.00;0.00;;;;;22.67;52.03;99163.47;4913864;28;102661;-59
2022/07/17 02:16:59;;;;;;;;;1.00;1.00;;;;;22.66;52.30;99159.03;4910729;28;104145;-59
2022/07/17 02:19:27;;;;;;;;;0.00;0.00;;;;;22.65;52.10;99154.63;4911860;28;102111;-59
2022/07/17 02:21:54;;;;;;;;;0.00;0.00;;;;;22.64;52.20;99159.34;4917449;28;102195;-59
2022/07/17 02:24:21;;;;;;;;;1.00;0.00;;;;;22.64;52.20;99164.00;4914332;28;102489;-60
2022/07/17 02:26:48;;;;;;;;;0.00;0.00;;;;;22.63;52.41;99168.69;4917216;28;104165;-59
2022/07/17 02:29:15;;;;;;;;;0.00;0.00;;;;;22.63;52.18;99156.81;4938928;28;104187;-59
2022/07/17 02:31:42;;;;;;;;;0.00;0.00;;;;;22.63;52.42;99168.69;4911765;28;102740;-59
2022/07/17 02:34:09;;;;;;;;;0.00;0.00;;;;;22.61;52.18;99162.59;4912267;28;102197;-59
2022/07/17 02:36:37;;;;;;;;;0.00;0.00;;;;;22.61;52.25;99159.84;4913717;28;103959;-59
2022/07/17 02:39:04;;;;;;;;;0.00;0.00;;;;;22.63;52.42;99167.84;4915442;28;102263;-60
2022/07/17 02:41:31;;;;;;;;;0.00;0.00;;;;;22.61;52.18;99154.31;4916065;28;102483;-59
2022/07/17 02:43:58;;;;;;;;;0.00;0.00;;;;;22.60;52.17;99163.69;4911436;28;102425;-59
2022/07/17 02:46:26;;;;;;;;;0.00;0.00;;;;;22.59;52.15;99164.81;4912572;28;104205;-60
2022/07/17 02:48:53;;;;;;;;;0.00;0.00;;;;;22.59;52.31;99158.47;4913609;28;102200;-59
2022/07/17 02:51:20;;;;;;;;;0.00;0.00;;;;;22.58;52.38;99167.81;4916017;28;110375;-60
2022/07/17 02:53:47;;;;;;;;;0.00;0.00;;;;;22.58;51.92;99157.63;4913641;28;102441;-59
2022/07/17 02:56:14;;;;;;;;;0.00;0.00;;;;;22.59;51.98;99155.69;4939870;28;104211;-59
2022/07/17 02:58:41;;;;;;;;;0.00;0.00;;;;;22.58;52.09;99165.06;4909298;28;102177;-59
2022/07/17 03:01:08;;;;;;;;;0.00;0.00;;;;;22.57;52.18;99168.91;4914462;28;102499;-59
2022/07/17 03:03:35;;;;;;;;;0.00;0.00;;;;;22.56;52.18;99161.75;4912925;28;102637;-59
2022/07/17 03:06:02;;;;;;;;;0.00;0.00;;;;;22.57;52.41;99168.91;4912791;28;104072;-59
2022/07/17 03:08:29;;;;;;;;;0.00;0.00;;;;;22.57;52.35;99168.91;4915883;28;102181;-60
2022/07/17 03:10:57;;;;;;;;;0.00;0.00;;;;;22.57;52.14;99164.22;4918469;28;102454;-59
2022/07/17 03:13:24;;;;;;;;;0.00;0.00;;;;;22.58;52.12;99170.56;4913813;28;102251;-59
2022/07/17 03:15:51;;;;;;;;;0.00;0.00;;;;;22.57;52.21;99179.94;4909176;28;107783;-59
2022/07/17 03:18:18;;;;;;;;;0.00;0.00;;;;;22.56;52.06;99183.81;4912494;28;103623;-60
2022/07/17 03:20:46;;;;;;;;;0.00;0.00;;;;;22.54;52.10;99181.31;4900273;28;102555;-59
2022/07/17 03:23:13;;;;;;;;;0.00;0.00;;;;;22.56;52.32;99178.28;4913462;28;102197;-59
2022/07/17 03:25:40;;;;;;;;;0.33;0.00;;;;;22.55;52.08;99182.13;4915614;28;105339;-60
2022/07/17 03:28:07;;;;;;;;;0.00;0.00;;;;;22.54;52.08;99184.06;4921856;28;102684;-59
2022/07/17 03:30:34;;;;;;;;;0.00;0.00;;;;;22.52;52.03;99189.00;4913726;28;102253;-59
2022/07/17 03:33:02;;;;;;;;;1.00;0.00;;;;;22.53;52.18;99190.66;4937285;28;102438;-59
2022/07/17 03:35:29;;;;;;;;;0.00;0.00;;;;;22.53;52.19;99200.84;4900572;28;104360;-59
2022/07/17 03:37:56;;;;;;;;;0.00;0.00;;;;;22.53;52.13;99203.63;4928360;28;102434;-60
2022/07/17 03:40:23;;;;;;;;;0.00;0.00;;;;;22.52;51.91;99199.19;4937501;28;102299;-59
2022/07/17 03:42:50;;;;;;;;;0.00;0.00;;;;;22.54;52.09;99197.00;4917768;28;102496;-59
2022/07/17 03:45:18;;;;;;;;;0.00;0.00;;;;;22.54;52.15;99199.75;4898216;28;103193;-60
2022/07/17 03:47:45;;;;;;;;;0.00;0.00;;;;;22.53;52.07;99196.19;4924295;28;102191;-59
2022/07/17 03:50:12;;;;;;;;;0.00;0.00;;;;;22.52;52.05;99210.22;4911783;28;102545;-59
2022/07/17 03:52:39;;;;;;;;;0.00;0.00;;;;;22.51;52.20;99214.91;4914264;28;102273;-60
2022/07/17 03:55:07;;;;;;;;;1.00;0.00;;;;;22.51;52.19;99208.56;4915200;28;104310;-59
2022/07/17 03:57:34;;;;;;;;;0.00;0.00;;;;;22.50;51.86;99212.41;4899709;28;102215;-59
2022/07/17 04:00:01;;;;;;;;;0.00;0.00;;;;;22.50;51.90;99206.91;4915452;28;102115;-59
2022/07/17 04:02:29;;;;;;;;;0.00;0.00;;;;;22.50;51.93;99209.66;4916016;28;102524;-59
2022/07/17 04:04:56;;;;;;;;;0.00;0.00;;;;;22.47;52.12;99210.19;4938762;28;105461;-59
2022/07/17 04:07:30;;;;;;;;;0.00;0.00;;;;;22.48;52.23;99211.84;4918624;28;102308;-59
2022/07/17 04:09:58;;;;;;;;;0.00;0.00;;;;;22.47;52.13;99213.75;4914535;28;102211;-59
2022/07/17 04:12:26;;;;;;;;;0.00;0.00;;;;;22.47;52.09;99213.75;4902186;28;102184;-59
2022/07/17 04:14:53;;;;;;;;;0.00;0.00;;;;;22.48;52.07;99222.84;4928498;28;104622;-59
2022/07/17 04:17:20;;;;;;;;;0.00;0.00;;;;;22.49;51.80;99219.00;4899531;28;102484;-59
2022/07/17 04:19:48;;;;;;;;;0.00;0.00;;;;;22.49;52.11;99222.59;4921584;28;103541;-60
2022/07/17 04:22:15;;;;;;;;;0.00;0.00;;;;;22.47;52.05;99221.22;4914124;28;103418;-59
2022/07/17 04:24:42;;;;;;;;;0.00;0.00;;;;;22.47;52.01;99223.97;4938492;28;102877;-59
2022/07/17 04:27:09;;;;;;;;;0.00;0.00;;;;;22.47;51.81;99229.50;4915614;28;102423;-60
2022/07/17 04:29:36;;;;;;;;;0.00;0.00;;;;;22.47;52.05;99235.00;4913137;28;102460;-59
2022/07/17 04:32:04;;;;;;;;;0.00;0.00;;;;;22.47;52.14;99240.50;4915080;28;102428;-59
2022/07/17 04:34:32;;;;;;;;;0.00;0.00;;;;;22.47;51.86;99237.75;4891560;28;104746;-59
2022/07/17 04:37:00;;;;;;;;;0.00;0.00;;;;;22.46;52.13;99245.19;4914519;28;102626;-59
2022/07/17 04:39:27;;;;;;;;;0.00;0.00;;;;;22.46;51.95;99245.19;4914136;28;102515;-60
2022/07/17 04:41:54;;;;;;;;;0.00;0.00;;;;;22.46;52.16;99239.69;4919860;28;102195;-60
2022/07/17 04:44:21;;;;;;;;;1.00;0.00;;;;;22.45;52.20;99243.53;4915267;28;110083;-59
2022/07/17 04:46:49;;;;;;;;;0.00;0.00;;;;;22.46;52.16;99250.69;4925350;28;102715;-60
2022/07/17 04:49:16;;;;;;;;;0.00;0.00;;;;;22.47;51.86;99249.59;4937359;28;102284;-59
2022/07/17 04:51:43;;;;;;;;;0.00;0.00;;;;;22.47;51.88;99251.53;4914191;28;102231;-59
2022/07/17 04:54:10;;;;;;;;;0.00;0.00;;;;;22.47;51.67;99262.56;4896964;28;111197;-59
2022/07/17 04:56:37;;;;;;;;;0.00;0.00;;;;;22.47;51.69;99254.28;4898061;28;103582;-60
2022/07/17 04:59:04;;;;;;;;;0.67;0.00;;;;;22.48;51.65;99254.00;4913681;28;102449;-59
2022/07/17 05:01:32;;;;;;;;;0.00;0.00;;;;;22.45;51.82;99254.53;4927847;28;102898;-59
2022/07/17 05:03:59;;;;;;;;;0.00;0.00;;;;;22.47;51.62;99257.06;4909413;28;105270;-60
2022/07/17 05:06:26;;;;;;;;;0.00;0.00;;;;;22.47;51.86;99262.56;4934781;28;102185;-59
2022/07/17 05:08:53;;;;;;;;;0.67;0.00;;;;;22.48;51.73;99258.69;4923397;28;102580;-59
2022/07/17 05:11:20;;;;;;;;;0.00;0.00;;;;;22.46;51.55;99253.47;4896983;28;102163;-59
2022/07/17 05:13:48;;;;;;;;;0.00;0.00;;;;;22.47;51.50;99257.84;4936725;28;105440;-59
2022/07/17 05:16:15;;;;;;;;;0.00;0.00;;;;;22.48;51.86;99264.19;4944107;28;102260;-60
2022/07/17 05:18:42;;;;;;;;;0.00;0.00;;;;;22.47;51.88;99252.34;4931581;28;102714;-60
2022/07/17 05:21:09;;;;;;;;;0.00;0.00;;;;;22.48;51.63;99253.19;4916405;28;102560;-60
2022/07/17 05:23:37;;;;;;;;;0.00;0.00;;;;;22.48;51.76;99258.69;4902627;28;105508;-60
2022/07/17 05:26:04;;;;;;;;;0.00;0.00;;;;;22.50;51.63;99256.50;4906563;28;102598;-59
2022/07/17 05:28:31;;;;;;;;;0.00;0.00;;;;;22.50;51.53;99264.78;4909578;28;102274;-60
2022/07/17 05:31:03;;;;;;;;;0.00;0.00;;;;;22.50;51.56;99256.50;4904247;28;102495;-59
2022/07/17 05:33:31;;;;;;;;;0.00;0.00;;;;;22.52;51.41;99259.81;4909882;28;104093;-59
2022/07/17 05:35:58;;;;;;;;;0.00;0.00;;;;;22.53;51.25;99258.75;4914298;28;102189;-59
2022/07/17 05:38:25;;;;;;;;;0.00;0.00;;;;;22.55;51.19;99262.06;4916022;28;104117;-59
2022/07/17 05:40:52;;;;;;;;;0.00;0.00;;;;;22.54;51.31;99266.75;4914498;28;102715;-59
2022/07/17 05:43:19;;;;;;;;;0.00;0.00;;;;;22.53;51.25;99273.34;4903875;28;105851;-59
2022/07/17 05:45:46;;;;;;;;;1.00;0.00;;;;;22.54;51.40;99275.03;4925840;28;102616;-60
2022/07/17 05:48:14;;;;;;;;;0.00;0.00;;;;;22.55;51.10;99271.19;4921525;28;102193;-59
2022/07/17 05:50:41;;;;;;;;;0.00;0.00;;;;;22.54;51.63;99275.03;4935062;28;103012;-59
2022/07/17 05:53:08;;;;;;;;;0.00;0.00;;;;;22.57;51.40;99279.16;4913701;28;103193;-59
2022/07/17 05:55:35;;;;;;;;;0.00;0.00;;;;;22.56;51.37;99277.53;4926118;28;102361;-60
2022/07/17 05:58:02;;;;;;;;;0.00;0.00;;;;;22.55;51.43;99282.22;4891597;28;103079;-59
2022/07/17 06:00:29;;;;;;;;;0.00;0.00;;;;;22.58;51.33;99283.59;4941723;28;102351;-59
2022/07/17 06:02:56;;;;;;;;;0.00;0.00;;;;;22.59;51.21;99288.03;4912674;28;104066;-59
2022/07/17 06:05:25;;;;;;;;;0.00;0.00;;;;;22.61;51.17;99294.91;4914462;28;102060;-59
2022/07/17 06:07:53;;;;;;;;;0.00;0.00;;;;;22.61;51.11;99285.81;4908300;28;102676;-59
2022/07/17 06:10:21;;;;;;;;;0.00;0.00;;;;;22.63;51.15;99289.16;4895430;28;104127;-59
2022/07/17 06:12:49;;;;;;;;;0.00;0.00;;;;;22.63;50.86;99294.66;4923181;28;102863;-59
2022/07/17 06:15:16;;;;;;;;;0.00;0.00;;;;;22.64;50.74;99299.94;4909527;28;104062;-59
2022/07/17 06:17:43;;;;;;;;;0.00;0.00;;;;;22.63;51.05;99298.25;4909880;28;102439;-59
2022/07/17 06:20:11;;;;;;;;;0.00;0.00;;;;;22.64;50.75;99307.38;4902850;28;102718;-59
2022/07/17 06:22:39;;;;;;;;;0.00;0.00;;;;;22.64;50.88;99307.38;4895159;28;104078;-59
2022/07/17 06:25:07;;;;;;;;;1.00;0.00;;;;;22.63;50.83;99295.50;4897045;28;102641;-59
2022/07/17 06:27:34;;;;;;;;;0.00;0.00;;;;;22.64;50.93;99299.94;4913063;28;102198;-60
2022/07/17 06:30:01;;;;;;;;;0.00;0.00;;;;;22.65;50.89;99301.56;4899500;28;102791;-59
2022/07/17 06:32:28;;;;;;;;;0.00;0.00;;;;;22.66;50.70;99308.75;4926575;28;103838;-59
2022/07/17 06:34:55;;;;;;;;;0.00;0.00;;;;;22.67;50.90;99306.84;4907997;28;102515;-59
2022/07/17 06:37:22;;;;;;;;;0.00;0.00;;;;;22.67;50.78;99312.34;4907599;28;102165;-59
2022/07/17 06:39:50;;;;;;;;;0.00;0.00;;;;;22.63;50.74;99311.22;4931733;28;102401;-59
2022/07/17 06:42:17;;;;;;;;;0.00;0.00;;;;;22.67;50.71;99309.59;4909381;28;104176;-59
2022/07/17 06:44:44;;;;;;;;;0.00;0.00;;;;;22.68;50.69;99309.34;4875932;28;102261;-59
2022/07/17 06:47:11;;;;;;;;;0.00;0.00;;;;;22.71;50.53;99313.50;4912350;28;105188;-60
2022/07/17 06:49:38;;;;;;;;;0.00;0.00;;;;;22.68;50.88;99309.34;4913124;28;103739;-60
2022/07/17 06:52:05;;;;;;;;;0.00;0.00;;;;;22.70;50.47;99306.31;4910112;28;105906;-59
2022/07/17 06:54:33;;;;;;;;;0.33;0.00;;;;;22.67;50.88;99309.59;4930940;28;102486;-60
2022/07/17 06:57:00;;;;;;;;;1.00;0.00;;;;;22.69;50.77;99310.19;4909010;28;102384;-59
2022/07/17 06:59:27;;;;;;;;;1.00;0.33;;;;;22.67;50.98;99312.34;4913682;28;102146;-61
2022/07/17 07:01:54;;;;;;;;;1.00;0.00;;;;;22.72;50.48;99304.16;4904560;28;104076;-60
2022/07/17 07:04:21;;;;;;;;;0.00;0.00;;;;;22.76;50.29;99312.72;4913619;28;102081;-61
2022/07/17 07:06:48;;;;;;;;;0.00;0.00;;;;;22.73;49.64;99311.34;4911730;28;102561;-61
2022/07/17 07:09:15;;;;;;;;;0.00;0.00;;;;;22.77;49.18;99306.97;4919055;28;102995;-60
2022/07/17 07:11:43;;;;;;;;;0.00;0.00;;;;;22.77;49.38;99309.72;4897269;28;103081;-61
2022/07/17 07:14:10;;;;;;;;;1.00;1.00;;;;;22.75;48.95;99316.56;4897812;28;102577;-61
2022/07/17 07:16:37;;;;;;;;;1.00;0.00;;;;;22.77;49.05;99306.97;4882080;28;102439;-60
2022/07/17 07:19:04;;;;;;;;;0.00;0.00;;;;;22.73;49.38;99314.09;4921887;28;102318;-60
2022/07/17 07:21:31;;;;;;;;;1.00;0.00;;;;;22.71;49.34;99310.75;4894704;28;106077;-57
2022/07/17 07:23:58;;;;;;;;;1.33;1.00;;;;;22.73;49.08;99311.34;4924214;28;102548;-62
2022/07/17 07:26:27;;;;;;;;;0.00;0.00;;;;;22.71;49.35;99296.97;4919624;28;102429;-62
2022/07/17 07:28:54;;;;;;;;;0.00;0.00;;;;;22.75;49.35;99313.81;4893722;28;103844;-64
2022/07/17 07:31:21;;;;;;;;;0.00;0.00;;;;;22.72;48.50;99312.44;4909602;28;110234;-59
2022/07/17 07:33:48;;;;;;;;;1.00;1.00;;;;;22.73;47.34;99305.81;4919561;28;103215;-64
2022/07/17 07:36:15;;;;;;;;;0.00;0.00;;;;;22.69;46.58;99312.94;4884016;28;102392;-67
2022/07/17 07:38:43;;;;;;;;;1.00;0.00;;;;;22.69;47.27;99307.41;4895173;28;102418;-67
2022/07/17 07:41:10;;;;;;;;;0.00;0.00;;;;;22.69;47.33;99308.25;4907294;28;102934;-66
2022/07/17 07:43:37;;;;;;;;;0.00;0.00;;;;;22.71;47.58;99312.69;4911719;28;102531;-66
2022/07/17 07:46:04;;;;;;;;;0.00;0.00;;;;;22.74;47.97;99317.69;4902613;28;102689;-65
2022/07/17 07:48:32;;;;;;;;;0.00;0.00;;;;;22.75;47.78;99328.44;4912309;28;102323;-65
2022/07/17 07:50:59;;;;;;;;;1.00;1.00;;;;;22.78;48.82;99329.84;4913605;28;104082;-66
2022/07/17 07:53:26;;;;;;;;;1.00;0.00;;;;;22.80;49.35;99328.47;4914149;28;102154;-66
2022/07/17 07:55:53;;;;;;;;;0.67;0.33;;;;;22.80;49.63;99333.16;4909239;28;102575;-65
2022/07/17 07:58:20;;;;;;;;;0.00;0.00;;;;;22.79;49.98;99337.84;4940921;28;102246;-66
2022/07/17 08:00:47;;;;;;;;;0.67;0.67;;;;;22.78;50.23;99330.69;4911067;28;104010;-65
2022/07/17 08:03:15;;;;;;;;;0.00;0.00;;;;;22.80;50.69;99339.50;4909983;28;102172;-66
2022/07/17 08:05:48;;;;;;;;;1.00;1.00;;;;;22.81;50.95;99345.88;4926181;28;102316;-65
2022/07/17 08:08:16;;;;;;;;;2.00;0.00;;;;;22.81;50.91;99343.94;4911211;28;102337;-66
2022/07/17 08:10:43;;;;;;;;;0.00;0.00;;;;;22.82;51.35;99347.53;4928426;28;104123;-65
2022/07/17 08:13:10;;;;;;;;;1.00;1.00;;;;;22.82;51.76;99347.53;4930031;28;102486;-66
2022/07/17 08:15:37;;;;;;;;;0.00;0.00;;;;;22.82;51.54;99342.03;4900360;28;102202;-65
2022/07/17 08:18:04;;;;;;;;;0.33;0.00;;;;;22.81;51.62;99341.19;4909544;28;102126;-65
2022/07/17 08:20:31;;;;;;;;;1.00;1.00;;;;;22.83;51.99;99350.00;4913319;28;104211;-65
2022/07/17 08:22:58;;;;;;;;;0.00;0.00;;;;;22.84;51.78;99345.31;4910391;28;102554;-65
2022/07/17 08:25:32;;;;;;;;;0.00;0.00;;;;;22.82;52.25;99342.84;4914943;28;102980;-65
2022/07/17 08:28:01;;;;;;;;;0.00;0.00;;;;;22.83;52.19;99344.50;4921418;28;102544;-66
2022/07/17 08:30:29;;;;;;;;;0.00;0.00;;;;;22.84;52.38;99340.66;4911468;28;104340;-65
2022/07/17 08:32:56;;;;;;;;;1.00;0.00;;;;;22.85;52.63;99336.81;4919687;28;104143;-65
2022/07/17 08:35:24;;;;;;;;;0.00;0.00;;;;;22.85;52.65;99339.56;4917053;28;102474;-65
2022/07/17 08:37:51;;;;;;;;;0.00;0.00;;;;;22.88;52.63;99351.97;4936320;28;102697;-66
2022/07/17 08:40:28;;;;;;;;;0.00;0.00;;;;;22.87;52.78;99362.22;4919765;28;104559;-66
2022/07/17 08:42:56;;;;;;;;;0.00;0.00;;;;;22.87;52.64;99359.44;4916139;28;102296;-65
2022/07/17 08:45:24;;;;;;;;;0.00;0.00;;;;;22.88;52.96;99349.22;4896568;28;102411;-65
2022/07/17 08:47:52;;;;;;;;;0.33;0.33;;;;;22.89;52.81;99350.91;4897595;28;102560;-66
2022/07/17 08:50:26;;;;;;;;;0.00;0.00;;;;;22.89;52.95;99354.47;4884980;28;104065;-65
2022/07/17 08:52:53;;;;;;;;;0.00;0.00;;;;;22.90;52.85;99353.41;4916997;28;102176;-66
2022/07/17 08:55:20;;;;;;;;;0.00;0.00;;;;;22.91;53.08;99357.81;4931014;28;103157;-66
2022/07/17 08:57:49;;;;;;;;;0.00;0.00;;;;;22.91;53.11;99357.81;4896320;28;102519;-66
2022/07/17 09:00:18;;;;;;;;;0.00;0.00;;;;;22.91;53.39;99352.31;4924098;28;103696;-66
2022/07/17 09:02:53;;;;;;;;;0.00;0.00;;;;;22.91;53.19;99355.06;4906494;28;102332;-66
2022/07/17 09:05:22;;;;;;;;;0.00;0.00;;;;;22.91;53.59;99357.81;4910456;28;102365;-66
2022/07/17 09:07:49;;;;;;;;;0.00;0.00;;;;;22.91;53.63;99357.81;4880125;28;102273;-66
2022/07/17 09:10:16;;;;;;;;;0.33;0.00;;;;;22.92;53.49;99364.97;4906783;28;104445;-66
2022/07/17 09:12:44;;;;;;;;;0.00;0.00;;;;;22.92;53.39;99359.47;4912174;28;102315;-66
2022/07/17 09:15:15;;;;;;;;;0.33;0.00;;;;;22.93;53.46;99352.88;4922511;28;102074;-66
2022/07/17 09:17:50;;;;;;;;;0.00;0.00;;;;;22.93;53.24;99361.13;4910283;28;102631;-66
2022/07/17 09:20:19;;;;;;;;;0.00;0.00;;;;;22.94;53.29;99368.31;4899381;28;103478;-66
2022/07/17 09:23:02;;;;;;;;;0.00;0.00;;;;;22.94;53.36;99373.84;4895910;28;103520;-65
2022/07/17 09:25:33;;;;;;;;;0.00;0.00;;;;;22.93;53.46;99383.19;4887951;28;103142;-65
2022/07/17 09:28:03;;;;;;;;;0.00;0.00;;;;;22.94;53.46;99373.84;4912190;28;103477;-65
2022/07/17 09:30:31;;;;;;;;;0.00;0.00;;;;;22.94;53.65;99367.50;4913013;28;104213;-65
2022/07/17 09:32:58;;;;;;;;;0.00;0.00;;;;;22.94;53.43;99370.25;4912432;28;102402;-66
2022/07/17 09:35:26;;;;;;;;;0.00;0.00;;;;;22.95;53.31;99375.50;4912211;28;102242;-66
2022/07/17 09:37:54;;;;;;;;;0.00;0.00;;;;;22.95;53.43;99375.50;4883605;28;102726;-66
2022/07/17 09:43:12;;;;;;;;;0.00;0.00;;;;;22.95;53.60;99381.03;4905783;28;102316;-66
2022/07/17 09:45:39;;;;;;;;;0.00;0.00;;;;;22.97;53.67;99387.09;4899898;28;102132;-66
2022/07/17 09:48:07;;;;;;;;;0.00;0.00;;;;;22.99;53.18;99384.09;4906982;28;102431;-66
2022/07/17 09:50:34;;;;;;;;;0.00;0.00;;;;;22.96;54.09;99374.44;4932707;28;104074;-65
2022/07/17 09:53:01;;;;;;;;;0.00;0.00;;;;;22.97;53.97;99387.09;4910255;28;102550;-64
2022/07/17 09:55:30;;;;;;;;;0.33;0.33;;;;;22.90;47.54;99383.75;4909350;28;102464;-60
2022/07/17 09:58:16;;;;;;;;;0.00;0.00;;;;;22.86;48.17;99376.25;4937323;28;103110;-60
2022/07/17 10:00:44;;;;;;;;;0.00;0.00;;;;;22.83;49.57;99376.78;4907401;28;105933;-61
2022/07/17 10:03:11;;;;;;;;;0.00;0.00;;;;;22.84;50.02;99379.25;4924388;28;102243;-61
2022/07/17 10:05:38;;;;;;;;;0.00;0.00;;;;;22.85;50.76;99375.41;4913591;28;102630;-61
2022/07/17 10:08:12;;;;;;;;;0.00;0.00;;;;;22.85;51.13;99375.41;4911879;28;102573;-61
2022/07/17 10:10:39;;;;;;;;;1.00;0.00;;;;;22.86;51.82;99360.53;4920964;28;103067;-61
2022/07/17 10:13:06;;;;;;;;;1.00;0.00;;;;;22.89;51.77;99373.78;4927146;28;102208;-61
2022/07/17 10:15:33;;;;;;;;;0.67;0.00;;;;;22.90;52.61;99377.38;4911112;28;102569;-60
2022/07/17 10:18:05;;;;;;;;;0.00;0.00;;;;;22.89;53.22;99368.28;4913764;28;102484;-60
2022/07/17 10:20:33;;;;;;;;;0.00;0.00;;;;;22.89;52.15;99375.72;4894038;28;110666;-61
2022/07/17 10:23:11;;;;;;;;;0.00;0.00;;;;;22.89;52.56;99373.78;4882791;28;103210;-60
2022/07/17 10:25:39;;;;;;;;;0.33;0.00;;;;;22.92;53.11;99378.78;4914201;28;102410;-61
2022/07/17 10:28:07;;;;;;;;;0.00;0.00;;;;;22.90;53.62;99372.72;4883932;28;102567;-60
2022/07/17 10:30:34;;;;;;;;;0.00;0.00;;;;;22.90;54.06;99371.88;4910995;28;105678;-61
2022/07/17 10:33:05;;;;;;;;;0.00;0.00;;;;;22.90;54.16;99369.94;4906364;28;102634;-60
2022/07/17 10:35:43;;;;;;;;;0.33;0.33;;;;;22.91;54.25;99373.53;4907142;28;105386;-61
2022/07/17 10:38:12;;;;;;;;;0.00;0.00;;;;;22.91;54.36;99384.56;4937549;28;102598;-61
2022/07/17 10:40:39;;;;;;;;;0.00;0.00;;;;;22.90;54.92;99382.91;4911955;28;103093;-61
2022/07/17 10:43:06;;;;;;;;;0.00;0.00;;;;;22.90;54.79;99383.75;4913041;28;103201;-61
2022/07/17 10:45:42;;;;;;;;;0.00;0.00;;;;;22.90;55.07;99383.75;4935119;28;102152;-61
2022/07/17 10:48:19;;;;;;;;;0.00;0.00;;;;;22.91;55.12;99385.41;4923912;28;102289;-60
2022/07/17 10:50:50;;;;;;;;;0.00;0.00;;;;;22.91;55.42;99377.13;4896277;28;104424;-61
2022/07/17 10:53:20;;;;;;;;;0.00;0.00;;;;;22.92;55.07;99372.44;4910821;28;102366;-61
2022/07/17 10:55:55;;;;;;;;;0.00;0.00;;;;;22.94;55.31;99375.75;4912770;28;102235;-61
2022/07/17 10:58:27;;;;;;;;;1.00;0.00;;;;;22.92;55.24;99381.53;4914602;28;102153;-60
2022/07/17 11:01:14;;;;;;;;;0.00;0.00;;;;;22.93;55.33;99377.69;4914366;28;109330;-61
2022/07/17 11:03:42;;;;;;;;;0.00;0.00;;;;;22.93;55.13;99383.19;4890416;28;102231;-61
2022/07/17 11:06:11;;;;;;;;;0.00;0.00;;;;;22.94;55.48;99370.25;4912172;28;102428;-61
2022/07/17 11:08:49;;;;;;;;;0.00;0.00;;;;;22.94;55.53;99376.59;4929063;28;102295;-61
2022/07/17 11:11:18;;;;;;;;;0.00;0.00;;;;;22.96;55.68;99376.34;4910484;28;104257;-60
2022/07/17 11:14:06;;;;;;;;;1.00;0.00;;;;;22.96;55.43;99368.91;4927910;28;102338;-61
2022/07/17 11:16:33;;;;;;;;;0.00;0.00;;;;;22.98;55.55;99368.63;4913019;28;102718;-61
2022/07/17 11:19:01;;;;;;;;;0.00;0.00;;;;;22.98;55.71;99374.97;4912273;28;102389;-61
2022/07/17 11:21:28;;;;;;;;;0.00;0.00;;;;;22.99;55.76;99368.38;4914787;28;104154;-60
2022/07/17 11:23:55;;;;;;;;;0.00;0.00;;;;;22.99;55.28;99370.28;4914997;28;102273;-60
2022/07/17 11:26:23;;;;;;;;;0.00;0.00;;;;;22.99;55.21;99371.13;4915241;28;104020;-61
2022/07/17 11:28:52;;;;;;;;;0.00;0.00;;;;;22.99;55.51;99371.13;4914714;28;102249;-61
2022/07/17 11:31:29;;;;;;;;;0.00;0.00;;;;;22.99;55.22;99367.53;4912234;28;109979;-60